createdAt,value
2022-11-21T00:03:12.450Z,60.7
2022-11-21T00:08:30.931Z,60.4
2022-11-21T00:13:48.880Z,60.8
2022-11-21T00:19:07.357Z,60.5
2022-11-21T00:24:26.958Z,60.8
2022-11-21T00:29:45.619Z,60.5
2022-11-21T00:35:04.111Z,60.6
2022-11-21T00:40:22.600Z,60.1
2022-11-21T00:45:40.813Z,60.4
2022-11-21T00:50:59.303Z,60
2022-11-21T00:56:17.246Z,60.4
2022-11-21T01:01:35.990Z,60.7
2022-11-21T01:06:54.770Z,60.4
2022-11-21T01:12:13.538Z,60.4
2022-11-21T01:17:32.348Z,60.5
2022-11-21T01:22:51.084Z,60.5
2022-11-21T01:28:09.569Z,59.9
2022-11-21T01:33:27.823Z,59.9
2022-11-21T01:38:46.558Z,60.2
2022-11-21T01:44:04.783Z,60.6
2022-11-21T01:49:23.018Z,59.9
2022-11-21T01:54:41.471Z,60.2
2022-11-21T02:00:00.264Z,60.6
2022-11-21T02:05:18.783Z,59.8
2022-11-21T02:10:36.966Z,60.6
2022-11-21T02:15:55.456Z,60
2022-11-21T02:21:13.684Z,60.1
2022-11-21T02:26:32.167Z,60.8
2022-11-21T02:31:50.372Z,60.2
2022-11-21T02:37:08.335Z,60.6
2022-11-21T02:42:26.802Z,60.5
2022-11-21T02:47:45.269Z,60.1
2022-11-21T02:53:03.527Z,60.1
2022-11-21T02:58:22.008Z,60.3
2022-11-21T03:03:40.543Z,60.9
2022-11-21T03:08:58.806Z,61.2
2022-11-21T03:14:17.546Z,60.4
2022-11-21T03:19:36.044Z,60.2
2022-11-21T03:24:54.889Z,60
2022-11-21T03:30:13.355Z,60.7
2022-11-21T03:35:32.162Z,60.9
2022-11-21T03:40:50.121Z,60.5
2022-11-21T03:46:08.607Z,61.1
2022-11-21T03:51:27.364Z,59.9
2022-11-21T03:56:45.921Z,60.1
2022-11-21T04:02:04.790Z,60
2022-11-21T04:07:23.093Z,59.9
2022-11-21T04:12:41.422Z,59.8
2022-11-21T04:17:59.613Z,60.2
2022-11-21T04:23:18.097Z,60.2
2022-11-21T04:28:36.605Z,60.3
2022-11-21T04:33:55.091Z,60.4
2022-11-21T04:39:13.852Z,60.5
2022-11-21T04:44:32.096Z,60.3
2022-11-21T04:49:50.554Z,60.4
2022-11-21T04:55:09.343Z,60.1
2022-11-21T05:00:28.125Z,59.4
2022-11-21T05:05:46.315Z,60
2022-11-21T05:11:05.074Z,60.1
2022-11-21T05:16:23.326Z,59.9
2022-11-21T05:21:41.788Z,60.2
2022-11-21T05:27:00.287Z,59.4
2022-11-21T05:32:18.541Z,59.5
2022-11-21T05:37:37.001Z,59.2
2022-11-21T05:42:54.917Z,59.9
2022-11-21T05:48:13.721Z,58.4
2022-11-21T05:53:32.206Z,57.1
2022-11-21T05:58:50.671Z,58.3
2022-11-21T06:04:15.725Z,58.2
2022-11-21T06:09:40.093Z,58.9
2022-11-21T06:15:07.471Z,58.7
2022-11-21T06:42:31.294Z,58
2022-11-21T06:47:49.849Z,58.2
2022-11-21T06:53:08.354Z,58
2022-11-21T06:58:26.881Z,57.9
2022-11-21T07:03:44.788Z,57.1
2022-11-21T07:09:34.555Z,56.9
2022-11-21T07:14:53.358Z,58.2
2022-11-21T07:20:12.105Z,58
2022-11-21T07:25:37.284Z,58.5
2022-11-21T07:30:55.771Z,58.6
2022-11-21T07:36:14.279Z,58.3
2022-11-21T07:41:17.424Z,57.8
2022-11-21T07:46:20.321Z,50.9
2022-11-21T07:51:39.030Z,53
2022-11-21T07:56:58.234Z,54.8
2022-11-21T08:02:16.855Z,55.7
2022-11-21T08:07:35.745Z,56.1
2022-11-21T08:12:53.930Z,56.9
2022-11-21T08:18:12.734Z,56.5
2022-11-21T08:23:30.922Z,56.7
2022-11-21T08:28:49.422Z,56.5
2022-11-21T08:34:15.202Z,56.7
2022-11-21T08:39:33.662Z,56.5
2022-11-21T08:44:52.437Z,56.2
2022-11-21T08:50:11.255Z,56.1
2022-11-21T08:55:29.984Z,56.9
2022-11-21T09:00:48.801Z,57.4
2022-11-21T09:06:07.582Z,56.4
2022-11-21T09:11:26.404Z,50.6
2022-11-21T09:16:45.630Z,52.4
2022-11-21T09:22:04.418Z,54.5
2022-11-21T09:27:23.031Z,54.6
2022-11-21T09:32:42.163Z,55.2
2022-11-21T09:38:00.999Z,55.8
2022-11-21T09:43:19.739Z,55.5
2022-11-21T09:48:38.238Z,56.2
2022-11-21T09:53:56.485Z,55.1
2022-11-21T09:59:15.223Z,55.4
2022-11-21T10:04:33.460Z,55.3
2022-11-21T10:09:52.809Z,55.2
2022-11-21T10:14:55.673Z,55.1
2022-11-21T10:20:14.135Z,55.8
2022-11-21T10:25:32.684Z,55.6
2022-11-21T10:30:51.146Z,55.9
2022-11-21T10:36:09.919Z,55.9
2022-11-21T10:41:28.444Z,55.2
2022-11-21T10:46:46.621Z,54.4
2022-11-21T10:52:05.356Z,55.2
2022-11-21T10:57:23.604Z,55.8
2022-11-21T11:02:42.063Z,56.1
2022-11-21T11:08:00.563Z,56.2
2022-11-21T11:13:49.377Z,55.7
2022-11-21T11:19:08.219Z,55.6
2022-11-21T11:24:26.693Z,56.4
2022-11-21T11:29:31.026Z,55.9
2022-11-21T11:34:49.646Z,56.3
2022-11-21T11:40:08.145Z,55.3
2022-11-21T11:45:26.398Z,55.8
2022-11-21T11:50:44.319Z,56.3
2022-11-21T11:56:03.061Z,56.1
2022-11-21T12:01:21.600Z,55.6
2022-11-21T12:08:39.992Z,54.7
2022-11-21T12:13:59.146Z,54.5
2022-11-21T12:19:17.962Z,54.7
2022-11-21T12:24:20.520Z,55.1
2022-11-21T12:29:39.100Z,54.4
2022-11-21T12:34:57.345Z,55.5
2022-11-21T12:40:16.081Z,55.3
2022-11-21T12:45:34.433Z,55.6
2022-11-21T12:50:52.383Z,54.9
2022-11-21T12:56:10.849Z,55.8
2022-11-21T13:01:29.658Z,55.7
2022-11-21T13:06:48.183Z,54.9
2022-11-21T13:12:06.727Z,54.8
2022-11-21T13:17:24.929Z,55.3
2022-11-21T13:22:43.434Z,55.7
2022-11-21T13:28:01.900Z,55.5
2022-11-21T13:33:21.818Z,55.5
2022-11-21T13:38:39.783Z,55.4
2022-11-21T13:43:58.539Z,55
2022-11-21T13:49:17.028Z,56
2022-11-21T13:54:35.576Z,56
2022-11-21T13:59:54.019Z,55.6
2022-11-21T14:04:56.349Z,55.7
2022-11-21T14:10:15.123Z,55.7
2022-11-21T14:15:33.299Z,55.7
2022-11-21T14:20:51.493Z,55.5
2022-11-21T14:26:10.407Z,54.9
2022-11-21T14:31:29.251Z,55.6
2022-11-21T14:36:47.464Z,55
2022-11-21T14:42:05.965Z,55.7
2022-11-21T14:47:27.399Z,54.6
2022-11-21T14:52:46.998Z,54.9
2022-11-21T14:58:05.589Z,55.6
2022-11-21T15:03:25.197Z,55.2
2022-11-21T15:10:26.435Z,55.4
2022-11-21T15:15:54.868Z,54.5
2022-11-21T15:21:13.611Z,55.1
2022-11-21T15:26:32.378Z,54.5
2022-11-21T15:31:51.209Z,55.2
2022-11-21T15:37:09.936Z,54.4
2022-11-21T15:42:28.447Z,53.9
2022-11-21T15:47:47.738Z,53.7
2022-11-21T15:53:05.941Z,54.2
2022-11-21T15:58:24.809Z,55
2022-11-21T16:03:43.056Z,55
2022-11-21T16:08:47.559Z,54
2022-11-21T16:14:06.098Z,54.2
2022-11-21T16:19:24.882Z,53.7
2022-11-21T16:24:43.648Z,55.1
2022-11-21T16:30:02.128Z,54.3
2022-11-21T16:35:20.767Z,54.3
2022-11-21T16:40:38.965Z,54.2
2022-11-21T16:45:56.895Z,54.8
2022-11-21T16:51:15.427Z,54.5
2022-11-21T16:56:34.164Z,54.3
2022-11-21T17:01:52.938Z,54.9
2022-11-21T17:07:11.339Z,54.2
2022-11-21T17:12:29.545Z,54.7
2022-11-21T17:17:47.735Z,54.7
2022-11-21T17:23:06.515Z,54.5
2022-11-21T17:28:24.430Z,54.5
2022-11-21T17:33:43.191Z,54.5
2022-11-21T17:39:01.415Z,54.5
2022-11-21T17:44:20.141Z,53.9
2022-11-21T17:49:38.632Z,54.2
2022-11-21T17:54:56.867Z,54.5
2022-11-21T18:00:15.617Z,53.3
2022-11-21T18:05:34.106Z,54.7
2022-11-21T18:10:52.599Z,54.4
2022-11-21T18:16:10.772Z,54.7
2022-11-21T18:21:29.278Z,52.5
2022-11-21T18:26:48.035Z,53
2022-11-21T18:32:06.234Z,53
2022-11-21T18:37:24.981Z,53.4
2022-11-21T18:42:43.510Z,53.8
2022-11-21T18:48:01.984Z,49.7
2022-11-21T18:53:20.505Z,51.7
2022-11-21T18:58:39.300Z,51.7
2022-11-21T19:03:57.502Z,53.1
2022-11-21T19:09:15.928Z,53.1
2022-11-21T19:14:34.730Z,50.9
2022-11-21T19:19:37.848Z,51.8
2022-11-21T19:24:56.105Z,52.8
2022-11-21T19:30:14.328Z,53.4
2022-11-21T19:35:33.037Z,52.8
2022-11-21T19:40:51.782Z,53.4
2022-11-21T19:46:10.280Z,53.4
2022-11-21T19:51:28.975Z,54.2
2022-11-21T19:56:47.772Z,53.7
2022-11-21T20:02:06.376Z,54.3
2022-11-21T20:07:25.044Z,54.2
2022-11-21T20:12:43.535Z,54
2022-11-21T20:18:02.034Z,54.2
2022-11-21T20:23:20.222Z,54.6
2022-11-21T20:28:38.990Z,54.8
2022-11-21T20:39:20.422Z,54.6
2022-11-21T20:46:06.977Z,54.8
2022-11-21T20:58:14.249Z,55.3
2022-11-21T21:03:17.104Z,54.6
2022-11-21T21:08:35.890Z,55
2022-11-21T21:13:54.656Z,55.2
2022-11-21T21:19:13.485Z,55.3
2022-11-21T21:24:31.974Z,55.2
2022-11-21T21:29:50.483Z,54.5
2022-11-21T21:35:08.976Z,55.4
2022-11-21T21:40:27.482Z,55
2022-11-21T21:45:46.282Z,55.3
2022-11-21T21:51:04.463Z,54.5
2022-11-21T21:56:22.964Z,54.4
2022-11-21T22:01:41.670Z,55.2
2022-11-21T22:07:00.196Z,55.4
2022-11-21T22:12:18.947Z,54.3
2022-11-21T22:17:37.196Z,55
2022-11-21T22:23:01.394Z,55.4
2022-11-21T22:28:19.271Z,55.3
2022-11-21T22:33:37.508Z,54.6
2022-11-21T22:38:55.721Z,55.5
2022-11-21T22:44:14.194Z,54.6
2022-11-21T22:49:32.989Z,55.4
2022-11-21T22:54:51.446Z,55.3
2022-11-21T23:00:09.927Z,55.5
2022-11-21T23:05:28.809Z,55.3
2022-11-21T23:10:47.266Z,54.6
2022-11-21T23:16:06.040Z,55.8
2022-11-21T23:21:24.601Z,55.3
2022-11-21T23:26:43.082Z,56.1
2022-11-21T23:32:01.563Z,55.8
2022-11-21T23:37:19.785Z,56.1
2022-11-21T23:42:38.241Z,56.3
2022-11-21T23:47:56.751Z,55.3
2022-11-21T23:53:15.243Z,55.5
2022-11-21T23:58:33.737Z,55.4
